createdAt,value
2018-11-21T00:00:40.998Z,1010.05
2018-11-21T00:01:40.752Z,1010.04
2018-11-21T00:02:40.845Z,1010.08
2018-11-21T00:03:41.005Z,1010.21
2018-11-21T00:04:40.701Z,1010.28
2018-11-21T00:05:40.688Z,1010.26
2018-11-21T00:06:40.669Z,1010.32
2018-11-21T00:07:40.701Z,1010.35
2018-11-21T00:08:40.981Z,1010.39
2018-11-21T00:09:40.701Z,1010.4
2018-11-21T00:10:40.667Z,1010.44
2018-11-21T00:11:40.676Z,1010.52
2018-11-21T00:12:40.657Z,1010.51
2018-11-21T00:13:40.692Z,1010.58
2018-11-21T00:14:40.711Z,1010.61
2018-11-21T00:15:40.820Z,1010.6
2018-11-21T00:16:40.816Z,1010.67
2018-11-21T00:17:40.774Z,1010.74
2018-11-21T00:18:40.661Z,1010.75
2018-11-21T00:19:40.842Z,1010.75
2018-11-21T00:20:41.086Z,1010.81
2018-11-21T00:21:40.920Z,1010.77
2018-11-21T00:22:41.033Z,1010.76
2018-11-21T00:23:40.923Z,1010.78
2018-11-21T00:24:40.681Z,1010.79
2018-11-21T00:25:40.972Z,1010.75
2018-11-21T00:26:41.124Z,1010.82
2018-11-21T00:27:40.717Z,1010.76
2018-11-21T00:28:40.706Z,1010.76
2018-11-21T00:29:40.711Z,1010.74
2018-11-21T00:30:40.741Z,1010.72
2018-11-21T00:31:40.896Z,1010.67
2018-11-21T00:32:40.963Z,1010.59
2018-11-21T00:33:40.692Z,1010.53
2018-11-21T00:34:40.710Z,1010.5
2018-11-21T00:35:40.672Z,1010.51
2018-11-21T00:36:40.996Z,1010.56
2018-11-21T00:37:40.699Z,1010.54
2018-11-21T00:38:40.667Z,1010.52
2018-11-21T00:39:40.878Z,1010.57
2018-11-21T00:40:40.984Z,1010.57
2018-11-21T00:41:40.722Z,1010.53
2018-11-21T00:42:46.796Z,1010.49
2018-11-21T00:43:40.701Z,1010.47
2018-11-21T00:44:40.780Z,1010.5
2018-11-21T00:45:40.667Z,1010.47
2018-11-21T00:46:40.964Z,1010.42
2018-11-21T00:47:40.803Z,1010.48
2018-11-21T00:48:40.664Z,1010.42
2018-11-21T00:49:40.852Z,1010.54
2018-11-21T00:50:40.776Z,1010.58
2018-11-21T00:51:40.769Z,1010.56
2018-11-21T00:52:40.681Z,1010.65
2018-11-21T00:53:40.611Z,1010.65
2018-11-21T00:54:40.735Z,1010.72
2018-11-21T00:55:40.624Z,1010.77
2018-11-21T00:56:40.822Z,1010.85
2018-11-21T00:57:40.770Z,1010.84
2018-11-21T00:58:40.742Z,1010.83
2018-11-21T00:59:40.765Z,1010.87
2018-11-21T01:00:40.671Z,1010.86
2018-11-21T01:01:40.742Z,1010.92
2018-11-21T01:02:40.627Z,1010.89
2018-11-21T01:03:40.665Z,1010.9
2018-11-21T01:04:40.700Z,1010.92
2018-11-21T01:05:40.755Z,1010.98
2018-11-21T01:06:40.761Z,1010.96
2018-11-21T01:07:40.624Z,1010.99
2018-11-21T01:08:40.715Z,1011.01
2018-11-21T01:09:40.658Z,1011.05
2018-11-21T01:10:40.592Z,1011.06
2018-11-21T01:11:40.597Z,1011.07
2018-11-21T01:12:40.934Z,1011.14
2018-11-21T01:13:40.626Z,1011.17
2018-11-21T01:14:40.670Z,1011.13
2018-11-21T01:15:40.692Z,1011.16
2018-11-21T01:16:41.434Z,1011.15
2018-11-21T01:17:40.564Z,1011.16
2018-11-21T01:18:40.635Z,1011.16
2018-11-21T01:19:40.612Z,1011.13
2018-11-21T01:20:40.937Z,1011.21
2018-11-21T01:21:40.605Z,1011.22
2018-11-21T01:22:40.872Z,1011.25
2018-11-21T01:23:40.733Z,1011.28
2018-11-21T01:24:40.712Z,1011.34
2018-11-21T01:25:40.735Z,1011.33
2018-11-21T01:26:40.744Z,1011.32
2018-11-21T01:27:40.647Z,1011.32
2018-11-21T01:28:40.636Z,1011.34
2018-11-21T01:29:40.575Z,1011.34
2018-11-21T01:30:40.552Z,1011.35
2018-11-21T01:31:40.638Z,1011.33
2018-11-21T01:32:40.644Z,1011.33
2018-11-21T01:33:40.585Z,1011.37
2018-11-21T01:34:40.579Z,1011.38
2018-11-21T01:35:40.566Z,1011.44
2018-11-21T01:36:40.848Z,1011.44
2018-11-21T01:37:40.589Z,1011.46
2018-11-21T01:38:40.572Z,1011.48
2018-11-21T01:39:40.603Z,1011.46
2018-11-21T01:40:40.702Z,1011.48
2018-11-21T01:41:40.577Z,1011.47
2018-11-21T01:42:41.640Z,1011.41
2018-11-21T01:43:40.570Z,1011.45
2018-11-21T01:44:40.696Z,1011.48
2018-11-21T01:45:40.661Z,1011.51
2018-11-21T01:46:40.849Z,1011.41
2018-11-21T01:47:40.625Z,1011.43
2018-11-21T01:48:40.524Z,1011.43
2018-11-21T01:49:40.580Z,1011.4
2018-11-21T01:50:40.590Z,1011.43
2018-11-21T01:51:40.543Z,1011.45
2018-11-21T01:52:40.704Z,1011.4
2018-11-21T01:53:40.556Z,1011.42
2018-11-21T01:54:40.526Z,1011.44
2018-11-21T01:55:40.713Z,1011.45
2018-11-21T01:56:40.613Z,1011.5
2018-11-21T01:57:40.694Z,1011.48
2018-11-21T01:58:40.519Z,1011.48
2018-11-21T01:59:40.737Z,1011.47
2018-11-21T02:00:40.641Z,1011.46
2018-11-21T02:01:41.367Z,1011.48
2018-11-21T02:02:40.675Z,1011.43
2018-11-21T02:03:40.782Z,1011.56
2018-11-21T02:04:41.034Z,1011.52
2018-11-21T02:05:40.711Z,1011.49
2018-11-21T02:06:40.576Z,1011.48
2018-11-21T02:07:40.794Z,1011.47
2018-11-21T02:08:40.748Z,1011.46
2018-11-21T02:09:40.540Z,1011.48
2018-11-21T02:10:40.658Z,1011.44
2018-11-21T02:11:40.817Z,1011.43
2018-11-21T02:12:40.551Z,1011.34
2018-11-21T02:13:40.588Z,1011.33
2018-11-21T02:14:41.361Z,1011.26
2018-11-21T02:15:40.702Z,1011.23
2018-11-21T02:16:40.702Z,1011.16
2018-11-21T02:17:40.604Z,1011.15
2018-11-21T02:18:40.620Z,1011.18
2018-11-21T02:19:40.597Z,1011.19
2018-11-21T02:20:40.753Z,1011.18
2018-11-21T02:21:40.943Z,1011.13
2018-11-21T02:22:40.540Z,1011.25
2018-11-21T02:23:40.567Z,1011.23
2018-11-21T02:24:40.931Z,1011.22
2018-11-21T02:25:40.483Z,1011.22
2018-11-21T02:26:40.866Z,1011.21
2018-11-21T02:27:40.549Z,1011.22
2018-11-21T02:28:40.573Z,1011.22
2018-11-21T02:29:40.703Z,1011.27
2018-11-21T02:30:40.601Z,1011.35
2018-11-21T02:31:40.608Z,1011.38
2018-11-21T02:32:40.744Z,1011.38
2018-11-21T02:33:40.539Z,1011.41
2018-11-21T02:34:40.511Z,1011.44
2018-11-21T02:35:40.532Z,1011.42
2018-11-21T02:36:40.542Z,1011.39
2018-11-21T02:37:40.650Z,1011.42
2018-11-21T02:38:40.628Z,1011.39
2018-11-21T02:39:40.533Z,1011.4
2018-11-21T02:40:40.745Z,1011.39
2018-11-21T02:41:40.751Z,1011.4
2018-11-21T02:42:40.582Z,1011.43
2018-11-21T02:43:40.607Z,1011.5
2018-11-21T02:44:40.647Z,1011.52
2018-11-21T02:45:40.651Z,1011.55
2018-11-21T02:46:40.556Z,1011.56
2018-11-21T02:47:40.556Z,1011.6
2018-11-21T02:48:40.506Z,1011.64
2018-11-21T02:49:40.546Z,1011.65
2018-11-21T02:50:40.477Z,1011.65
2018-11-21T02:51:40.932Z,1011.67
2018-11-21T02:52:40.519Z,1011.62
2018-11-21T02:53:40.844Z,1011.71
2018-11-21T02:54:40.742Z,1011.69
2018-11-21T02:55:40.548Z,1011.66
2018-11-21T02:56:40.495Z,1011.73
2018-11-21T02:57:40.452Z,1011.77
2018-11-21T02:58:40.492Z,1011.8
2018-11-21T02:59:40.482Z,1011.8
2018-11-21T03:00:40.627Z,1011.87
2018-11-21T03:01:40.545Z,1011.89
2018-11-21T03:02:40.564Z,1012
2018-11-21T03:03:40.629Z,1012
2018-11-21T03:04:40.517Z,1012.07
2018-11-21T03:05:40.762Z,1012.04
2018-11-21T03:06:40.532Z,1012.1
2018-11-21T03:07:40.572Z,1012.14
2018-11-21T03:08:40.481Z,1012.18
2018-11-21T03:09:40.447Z,1012.22
2018-11-21T03:10:40.493Z,1012.24
2018-11-21T03:11:40.478Z,1012.26
2018-11-21T03:12:40.487Z,1012.29
2018-11-21T03:13:40.529Z,1012.32
2018-11-21T03:14:40.417Z,1012.32
2018-11-21T03:15:40.452Z,1012.31
2018-11-21T03:16:40.790Z,1012.31
2018-11-21T03:17:40.453Z,1012.34
2018-11-21T03:18:40.463Z,1012.28
2018-11-21T03:19:40.452Z,1012.3
2018-11-21T03:20:40.478Z,1012.28
2018-11-21T03:21:40.500Z,1012.26
2018-11-21T03:22:40.912Z,1012.29
2018-11-21T03:23:40.416Z,1012.28
2018-11-21T03:24:40.450Z,1012.3
2018-11-21T03:25:40.494Z,1012.35
2018-11-21T03:26:40.411Z,1012.41
2018-11-21T03:27:40.426Z,1012.44
2018-11-21T03:28:40.529Z,1012.4
2018-11-21T03:29:40.439Z,1012.44
2018-11-21T03:30:40.521Z,1012.39
2018-11-21T03:31:40.437Z,1012.41
2018-11-21T03:32:40.529Z,1012.41
2018-11-21T03:33:40.450Z,1012.42
2018-11-21T03:34:40.406Z,1012.33
2018-11-21T03:35:40.491Z,1012.33
2018-11-21T03:36:40.424Z,1012.39
2018-11-21T03:37:40.531Z,1012.42
2018-11-21T03:38:40.394Z,1012.46
2018-11-21T03:39:40.871Z,1012.44
2018-11-21T03:40:40.652Z,1012.45
2018-11-21T03:41:40.375Z,1012.45
2018-11-21T03:42:40.738Z,1012.43
2018-11-21T03:43:40.599Z,1012.4
2018-11-21T03:44:40.458Z,1012.35
2018-11-21T03:45:40.540Z,1012.29
2018-11-21T03:46:40.416Z,1012.29
2018-11-21T03:47:40.683Z,1012.26
2018-11-21T03:48:40.471Z,1012.21
2018-11-21T03:49:40.621Z,1012.22
2018-11-21T03:50:40.386Z,1012.2
2018-11-21T03:51:40.479Z,1012.2
2018-11-21T03:52:40.378Z,1012.2
2018-11-21T03:53:40.360Z,1012.15
2018-11-21T03:54:40.435Z,1012.16
2018-11-21T03:55:40.648Z,1012.11
2018-11-21T03:56:40.771Z,1012.09
2018-11-21T03:57:40.491Z,1012.08
2018-11-21T03:58:40.367Z,1012.1
2018-11-21T03:59:40.333Z,1012.11
2018-11-21T04:00:40.442Z,1012.06
2018-11-21T04:01:40.375Z,1012.2
2018-11-21T04:02:40.432Z,1012.08
2018-11-21T04:03:40.360Z,1012.16
2018-11-21T04:04:40.513Z,1012.25
2018-11-21T04:05:40.468Z,1012.23
2018-11-21T04:06:40.592Z,1012.31
2018-11-21T04:07:40.643Z,1012.38
2018-11-21T04:08:42.828Z,1012.39
2018-11-21T04:09:40.574Z,1012.4
2018-11-21T04:10:40.451Z,1012.39
2018-11-21T04:11:40.483Z,1012.36
2018-11-21T04:12:40.581Z,1012.4
2018-11-21T04:13:40.745Z,1012.39
2018-11-21T04:14:40.363Z,1012.41
2018-11-21T04:15:40.387Z,1012.47
2018-11-21T04:16:40.412Z,1012.47
2018-11-21T04:17:40.360Z,1012.51
2018-11-21T04:18:40.494Z,1012.52
2018-11-21T04:19:40.496Z,1012.5
2018-11-21T04:20:40.382Z,1012.54
2018-11-21T04:21:40.389Z,1012.53
2018-11-21T04:22:40.395Z,1012.5
2018-11-21T04:23:40.482Z,1012.5
2018-11-21T04:24:40.406Z,1012.52
2018-11-21T04:25:40.410Z,1012.56
2018-11-21T04:26:40.370Z,1012.57
2018-11-21T04:27:40.595Z,1012.54
2018-11-21T04:28:40.485Z,1012.62
2018-11-21T04:29:40.369Z,1012.67
2018-11-21T04:30:40.396Z,1012.72
2018-11-21T04:31:40.735Z,1012.7
2018-11-21T04:32:40.418Z,1012.76
2018-11-21T04:33:40.532Z,1012.81
2018-11-21T04:34:40.510Z,1012.84
2018-11-21T04:35:40.479Z,1012.84
2018-11-21T04:36:40.618Z,1012.85
2018-11-21T04:37:40.529Z,1012.9
2018-11-21T04:38:40.400Z,1012.88
2018-11-21T04:39:40.699Z,1012.84
2018-11-21T04:40:40.544Z,1012.9
2018-11-21T04:41:40.425Z,1012.86
2018-11-21T04:42:40.570Z,1012.88
2018-11-21T04:43:40.332Z,1012.87
2018-11-21T04:44:40.392Z,1012.91
2018-11-21T04:45:40.705Z,1012.88
2018-11-21T04:46:40.309Z,1012.85
2018-11-21T04:47:40.321Z,1012.88
2018-11-21T04:48:40.402Z,1012.82
2018-11-21T04:49:40.313Z,1012.89
2018-11-21T04:50:40.393Z,1012.87
2018-11-21T04:51:40.351Z,1012.9
2018-11-21T04:52:40.372Z,1012.95
2018-11-21T04:53:40.372Z,1012.93
2018-11-21T04:54:40.334Z,1012.99
2018-11-21T04:55:40.420Z,1013.01
2018-11-21T04:56:40.311Z,1013.05
2018-11-21T04:57:40.315Z,1013.07
2018-11-21T04:58:40.335Z,1013.05
2018-11-21T04:59:40.289Z,1013.09
2018-11-21T05:00:40.522Z,1013.06
2018-11-21T05:01:40.300Z,1013.02
2018-11-21T05:02:40.309Z,1013.07
2018-11-21T05:03:40.315Z,1013.05
2018-11-21T05:04:40.280Z,1013.05
2018-11-21T05:05:40.676Z,1013.06
2018-11-21T05:06:40.306Z,1013.07
2018-11-21T05:07:40.269Z,1013.04
2018-11-21T05:08:40.348Z,1013.02
2018-11-21T05:09:40.271Z,1013.01
2018-11-21T05:10:41.134Z,1013.02
2018-11-21T05:11:40.363Z,1012.99
2018-11-21T05:12:40.466Z,1012.98
2018-11-21T05:13:40.283Z,1012.93
2018-11-21T05:14:40.378Z,1012.98
2018-11-21T05:15:40.328Z,1012.97
2018-11-21T05:16:40.237Z,1012.92
2018-11-21T05:17:41.147Z,1012.92
2018-11-21T05:18:40.360Z,1012.9
2018-11-21T05:19:40.308Z,1012.86
2018-11-21T05:20:40.582Z,1012.91
2018-11-21T05:21:40.467Z,1012.97
2018-11-21T05:22:40.494Z,1012.93
2018-11-21T05:23:40.297Z,1013.01
2018-11-21T05:24:40.381Z,1013.04
2018-11-21T05:25:40.338Z,1013
2018-11-21T05:26:40.319Z,1013.03
2018-11-21T05:27:40.266Z,1013.05
2018-11-21T05:28:40.444Z,1013.1
2018-11-21T05:29:40.471Z,1013.07
2018-11-21T05:30:40.453Z,1013.05
2018-11-21T05:31:40.498Z,1013.07
2018-11-21T05:32:40.615Z,1013.07
2018-11-21T05:33:40.441Z,1013.05
2018-11-21T05:34:40.367Z,1013.13
2018-11-21T05:35:40.304Z,1013.1
2018-11-21T05:36:40.398Z,1013.07
2018-11-21T05:37:40.386Z,1013.11
2018-11-21T05:38:40.330Z,1013.08
2018-11-21T05:39:40.307Z,1013.17
2018-11-21T05:40:40.440Z,1013.11
2018-11-21T05:41:40.281Z,1013.1
2018-11-21T05:42:40.288Z,1013.12
2018-11-21T05:43:40.309Z,1013.13
2018-11-21T05:44:40.243Z,1013.16
2018-11-21T05:45:40.394Z,1013.11
2018-11-21T05:46:40.346Z,1013.11
2018-11-21T05:47:40.428Z,1013.19
2018-11-21T05:48:40.245Z,1013.17
2018-11-21T05:49:40.235Z,1013.25
2018-11-21T05:50:40.546Z,1013.19
2018-11-21T05:51:40.387Z,1013.19
2018-11-21T05:52:40.231Z,1013.15
2018-11-21T05:53:40.429Z,1013.17
2018-11-21T05:54:40.398Z,1013.18
2018-11-21T05:55:40.413Z,1013.2
2018-11-21T05:56:40.255Z,1013.19
2018-11-21T05:57:40.577Z,1013.17
2018-11-21T05:58:40.284Z,1013.13
2018-11-21T05:59:40.341Z,1013.22
2018-11-21T06:00:40.298Z,1013.18
2018-11-21T06:01:40.293Z,1013.24
2018-11-21T06:02:40.398Z,1013.3
2018-11-21T06:03:40.277Z,1013.3
2018-11-21T06:04:40.290Z,1013.32
2018-11-21T06:05:40.263Z,1013.35
2018-11-21T06:06:40.168Z,1013.34
2018-11-21T06:07:40.382Z,1013.32
2018-11-21T06:08:40.196Z,1013.38
2018-11-21T06:09:40.236Z,1013.41
2018-11-21T06:10:40.264Z,1013.34
2018-11-21T06:11:40.492Z,1013.43
2018-11-21T06:12:40.228Z,1013.5
2018-11-21T06:13:40.182Z,1013.56
2018-11-21T06:14:40.238Z,1013.56
2018-11-21T06:15:40.173Z,1013.62
2018-11-21T06:16:40.390Z,1013.74
2018-11-21T06:17:40.225Z,1013.78
2018-11-21T06:18:40.476Z,1013.8
2018-11-21T06:19:40.204Z,1013.81
2018-11-21T06:20:40.465Z,1013.89
2018-11-21T06:21:40.272Z,1013.88
2018-11-21T06:22:40.158Z,1013.88
2018-11-21T06:23:40.427Z,1013.84
2018-11-21T06:24:40.202Z,1013.89
2018-11-21T06:25:40.420Z,1013.86
2018-11-21T06:26:40.157Z,1013.82
2018-11-21T06:27:40.178Z,1013.89
2018-11-21T06:28:40.724Z,1013.87
2018-11-21T06:29:40.161Z,1013.92
2018-11-21T06:30:40.142Z,1013.92
2018-11-21T06:31:40.193Z,1013.94
2018-11-21T06:32:40.201Z,1014
2018-11-21T06:33:40.163Z,1014.01
2018-11-21T06:34:40.157Z,1014.08
2018-11-21T06:35:40.189Z,1014.1
2018-11-21T06:36:40.530Z,1014.16
2018-11-21T06:37:40.192Z,1014.15
2018-11-21T06:38:40.149Z,1014.12
2018-11-21T06:39:40.589Z,1014.21
2018-11-21T06:40:40.139Z,1014.25
2018-11-21T06:41:40.198Z,1014.23
2018-11-21T06:42:40.138Z,1014.27
2018-11-21T06:43:40.135Z,1014.27
2018-11-21T06:44:40.407Z,1014.22
2018-11-21T06:45:40.379Z,1014.26
2018-11-21T06:46:40.230Z,1014.3
2018-11-21T06:47:40.159Z,1014.31
2018-11-21T06:48:40.323Z,1014.3
2018-11-21T06:49:40.459Z,1014.35
2018-11-21T06:50:40.295Z,1014.36
2018-11-21T06:51:40.731Z,1014.38
2018-11-21T06:52:40.124Z,1014.39
2018-11-21T06:53:40.163Z,1014.43
2018-11-21T06:54:40.185Z,1014.46
2018-11-21T06:55:40.266Z,1014.42
2018-11-21T06:56:40.392Z,1014.47
2018-11-21T06:57:40.450Z,1014.46
2018-11-21T06:58:40.298Z,1014.45
2018-11-21T06:59:40.330Z,1014.5
2018-11-21T07:00:40.143Z,1014.53
2018-11-21T07:01:40.215Z,1014.54
2018-11-21T07:02:40.229Z,1014.59
2018-11-21T07:03:40.504Z,1014.57
2018-11-21T07:04:40.646Z,1014.61
2018-11-21T07:05:40.305Z,1014.63
2018-11-21T07:06:40.422Z,1014.62
2018-11-21T07:07:40.335Z,1014.71
2018-11-21T07:08:40.132Z,1014.67
2018-11-21T07:09:40.445Z,1014.8
2018-11-21T07:10:40.224Z,1014.78
2018-11-21T07:11:40.084Z,1014.85
2018-11-21T07:12:40.327Z,1014.83
2018-11-21T07:13:40.241Z,1014.92
2018-11-21T07:14:40.359Z,1014.93
2018-11-21T07:15:40.112Z,1014.91
2018-11-21T07:16:40.158Z,1014.9
2018-11-21T07:17:40.226Z,1014.91
2018-11-21T07:18:40.323Z,1014.92
2018-11-21T07:19:40.124Z,1014.89
2018-11-21T07:20:40.164Z,1014.91
2018-11-21T07:21:40.418Z,1014.84
2018-11-21T07:22:40.078Z,1014.9
2018-11-21T07:23:40.136Z,1014.95
2018-11-21T07:24:40.171Z,1014.96
2018-11-21T07:25:40.303Z,1015.01
2018-11-21T07:26:40.566Z,1015.02
2018-11-21T07:27:40.374Z,1015.02
2018-11-21T07:28:40.133Z,1015.04
2018-11-21T07:29:40.255Z,1015.04
2018-11-21T07:30:40.254Z,1015.01
2018-11-21T07:31:40.584Z,1014.98
2018-11-21T07:32:40.507Z,1014.97
2018-11-21T07:33:46.569Z,1015
2018-11-21T07:34:40.113Z,1015
2018-11-21T07:35:40.101Z,1015.01
2018-11-21T07:36:40.162Z,1015
2018-11-21T07:37:40.113Z,1015
2018-11-21T07:38:40.109Z,1014.99
2018-11-21T07:39:40.156Z,1015
2018-11-21T07:40:40.333Z,1014.98
2018-11-21T07:41:40.130Z,1015
2018-11-21T07:42:40.349Z,1015.05
2018-11-21T07:43:40.941Z,1014.99
2018-11-21T07:44:40.334Z,1015.09
2018-11-21T07:45:40.232Z,1015.03
2018-11-21T07:46:40.272Z,1015.09
2018-11-21T07:47:40.152Z,1015.07
2018-11-21T07:48:40.096Z,1015.05
2018-11-21T07:49:40.932Z,1015.05
2018-11-21T07:50:40.300Z,1015
2018-11-21T07:51:40.137Z,1014.98
2018-11-21T07:52:40.092Z,1014.99
2018-11-21T07:53:40.096Z,1014.99
2018-11-21T07:54:40.107Z,1015.04
2018-11-21T07:55:40.412Z,1015.07
2018-11-21T07:56:40.098Z,1015.07
2018-11-21T07:57:40.245Z,1015.05
2018-11-21T07:58:40.082Z,1015.08
2018-11-21T07:59:40.090Z,1015.05
2018-11-21T08:00:40.075Z,1015.11
2018-11-21T08:01:40.314Z,1015.1
2018-11-21T08:02:40.151Z,1015.08
2018-11-21T08:03:40.224Z,1015.13
2018-11-21T08:04:40.065Z,1015.07
2018-11-21T08:05:44.545Z,1015.1
2018-11-21T08:06:40.243Z,1015.1
2018-11-21T08:07:40.336Z,1015.17
2018-11-21T08:08:40.050Z,1015.17
2018-11-21T08:09:40.046Z,1015.21
2018-11-21T08:10:40.129Z,1015.18
2018-11-21T08:11:40.151Z,1015.24
2018-11-21T08:12:40.059Z,1015.16
2018-11-21T08:13:40.057Z,1015.17
2018-11-21T08:14:40.088Z,1015.18
2018-11-21T08:15:40.026Z,1015.13
2018-11-21T08:16:40.054Z,1015.16
2018-11-21T08:17:40.418Z,1015.18
2018-11-21T08:18:40.157Z,1015.2
2018-11-21T08:19:40.124Z,1015.18
2018-11-21T08:20:40.441Z,1015.28
2018-11-21T08:21:40.039Z,1015.32
2018-11-21T08:22:40.249Z,1015.29
2018-11-21T08:23:40.052Z,1015.29
2018-11-21T08:24:40.500Z,1015.27
2018-11-21T08:25:40.009Z,1015.34
2018-11-21T08:26:40.249Z,1015.33
2018-11-21T08:27:40.328Z,1015.38
2018-11-21T08:28:40.269Z,1015.36
2018-11-21T08:29:40.681Z,1015.46
2018-11-21T08:30:40.317Z,1015.47
2018-11-21T08:31:40.241Z,1015.48
2018-11-21T08:32:40.148Z,1015.54
2018-11-21T08:33:40.051Z,1015.5
2018-11-21T08:34:40.098Z,1015.54
2018-11-21T08:35:40.232Z,1015.48
2018-11-21T08:36:40.115Z,1015.44
2018-11-21T08:37:40.181Z,1015.43
2018-11-21T08:38:40.191Z,1015.43
2018-11-21T08:39:40.367Z,1015.45
2018-11-21T08:40:40.013Z,1015.42
2018-11-21T08:41:40.476Z,1015.43
2018-11-21T08:42:40.028Z,1015.41
2018-11-21T08:43:40.333Z,1015.45
2018-11-21T08:44:40.300Z,1015.49
2018-11-21T08:45:40.100Z,1015.52
2018-11-21T08:46:40.088Z,1015.51
2018-11-21T08:47:40.194Z,1015.5
2018-11-21T08:48:40.001Z,1015.54
2018-11-21T08:49:39.982Z,1015.54
2018-11-21T08:50:39.969Z,1015.56
2018-11-21T08:51:40.189Z,1015.53
2018-11-21T08:52:40.212Z,1015.54
2018-11-21T08:53:40.020Z,1015.54
2018-11-21T08:54:40.131Z,1015.61
2018-11-21T08:55:40.231Z,1015.52
2018-11-21T08:56:40.033Z,1015.57
2018-11-21T08:57:40.406Z,1015.6
2018-11-21T08:58:40.236Z,1015.58
2018-11-21T08:59:40.183Z,1015.52
2018-11-21T09:00:40.015Z,1015.56
2018-11-21T09:01:40.402Z,1015.52
2018-11-21T09:02:40.000Z,1015.51
2018-11-21T09:03:39.956Z,1015.57
2018-11-21T09:04:40.024Z,1015.55
2018-11-21T09:05:40.064Z,1015.59
2018-11-21T09:06:40.423Z,1015.63
2018-11-21T09:07:39.946Z,1015.6
2018-11-21T09:08:40.073Z,1015.65
2018-11-21T09:09:40.015Z,1015.67
2018-11-21T09:10:40.125Z,1015.59
2018-11-21T09:11:40.078Z,1015.62
2018-11-21T09:12:40.021Z,1015.65
2018-11-21T09:13:40.040Z,1015.72
2018-11-21T09:14:40.290Z,1015.7
2018-11-21T09:15:40.305Z,1015.72
2018-11-21T09:16:40.773Z,1015.72
2018-11-21T09:17:39.996Z,1015.72
2018-11-21T09:18:40.106Z,1015.77
2018-11-21T09:19:40.010Z,1015.78
2018-11-21T09:20:40.068Z,1015.81
2018-11-21T09:21:40.264Z,1015.84
2018-11-21T09:22:39.927Z,1015.91
2018-11-21T09:23:40.093Z,1015.91
2018-11-21T09:24:40.016Z,1015.87
2018-11-21T09:25:40.035Z,1015.91
2018-11-21T09:26:40.110Z,1015.96
2018-11-21T09:27:39.917Z,1015.98
2018-11-21T09:28:40.023Z,1015.97
2018-11-21T09:29:39.991Z,1016
2018-11-21T09:30:40.097Z,1016.06
2018-11-21T09:31:39.917Z,1016.09
2018-11-21T09:32:39.961Z,1016.01
2018-11-21T09:33:40.304Z,1016.11
2018-11-21T09:34:40.008Z,1016.13
2018-11-21T09:35:39.948Z,1016.15
2018-11-21T09:36:40.066Z,1016.11
2018-11-21T09:37:39.985Z,1016.14
2018-11-21T09:38:40.066Z,1016.14
2018-11-21T09:39:39.986Z,1016.18
2018-11-21T09:40:39.917Z,1016.16
2018-11-21T09:41:39.984Z,1016.16
2018-11-21T09:42:39.905Z,1016.16
2018-11-21T09:43:39.941Z,1016.16
2018-11-21T09:44:39.904Z,1016.15
2018-11-21T09:45:39.968Z,1016.18
2018-11-21T09:46:39.900Z,1016.2
2018-11-21T09:47:39.936Z,1016.25
2018-11-21T09:48:40.048Z,1016.22
2018-11-21T09:49:39.963Z,1016.32
2018-11-21T09:50:39.965Z,1016.29
2018-11-21T09:51:39.882Z,1016.33
2018-11-21T09:52:40.618Z,1016.37
2018-11-21T09:53:39.891Z,1016.37
2018-11-21T09:54:39.912Z,1016.36
2018-11-21T09:55:40.639Z,1016.37
2018-11-21T09:56:40.104Z,1016.3
2018-11-21T09:57:39.984Z,1016.32
2018-11-21T09:58:40.272Z,1016.37
2018-11-21T09:59:40.110Z,1016.28
2018-11-21T10:00:40.141Z,1016.32
2018-11-21T10:01:40.010Z,1016.34
2018-11-21T10:02:40.303Z,1016.36
2018-11-21T10:03:40.124Z,1016.37
2018-11-21T10:04:39.982Z,1016.34
2018-11-21T10:05:40.020Z,1016.39
2018-11-21T10:06:39.857Z,1016.39
2018-11-21T10:07:40.143Z,1016.4
2018-11-21T10:08:40.078Z,1016.4
2018-11-21T10:09:39.922Z,1016.41
2018-11-21T10:10:39.941Z,1016.37
2018-11-21T10:11:39.969Z,1016.37
2018-11-21T10:12:40.346Z,1016.36
2018-11-21T10:13:40.008Z,1016.33
2018-11-21T10:14:39.993Z,1016.38
2018-11-21T10:15:40.182Z,1016.37
2018-11-21T10:16:39.942Z,1016.34
2018-11-21T10:17:39.947Z,1016.4
2018-11-21T10:18:40.086Z,1016.42
2018-11-21T10:19:39.909Z,1016.41
2018-11-21T10:20:40.082Z,1016.42
2018-11-21T10:21:39.857Z,1016.42
2018-11-21T10:22:39.939Z,1016.41
2018-11-21T10:23:40.270Z,1016.4
2018-11-21T10:24:39.841Z,1016.46
2018-11-21T10:25:39.958Z,1016.41
2018-11-21T10:26:40.213Z,1016.42
2018-11-21T10:27:40.491Z,1016.38
2018-11-21T10:28:40.054Z,1016.4
2018-11-21T10:29:40.007Z,1016.35
2018-11-21T10:30:40.054Z,1016.38
2018-11-21T10:31:39.997Z,1016.3
2018-11-21T10:32:39.964Z,1016.39
2018-11-21T10:33:39.866Z,1016.33
2018-11-21T10:34:40.106Z,1016.33
2018-11-21T10:35:39.882Z,1016.37
2018-11-21T10:36:40.161Z,1016.43
2018-11-21T10:37:39.922Z,1016.4
2018-11-21T10:38:40.124Z,1016.43
2018-11-21T10:39:39.935Z,1016.43
2018-11-21T10:40:39.858Z,1016.42
2018-11-21T10:41:39.831Z,1016.43
2018-11-21T10:42:39.859Z,1016.45
2018-11-21T10:43:40.670Z,1016.48
2018-11-21T10:44:39.802Z,1016.39
2018-11-21T10:45:40.073Z,1016.39
2018-11-21T10:46:39.941Z,1016.37
2018-11-21T10:47:40.002Z,1016.38
2018-11-21T10:48:39.915Z,1016.36
2018-11-21T10:49:39.917Z,1016.38
2018-11-21T10:50:40.076Z,1016.36
2018-11-21T10:51:39.976Z,1016.37
2018-11-21T10:52:40.013Z,1016.34
2018-11-21T10:53:39.972Z,1016.35
2018-11-21T10:54:40.066Z,1016.36
2018-11-21T10:55:42.325Z,1016.36
2018-11-21T10:56:39.953Z,1016.37
2018-11-21T10:57:39.847Z,1016.41
2018-11-21T10:58:39.813Z,1016.42
2018-11-21T10:59:39.945Z,1016.42
2018-11-21T11:00:39.960Z,1016.4
2018-11-21T11:01:39.944Z,1016.47
2018-11-21T11:02:39.998Z,1016.42
2018-11-21T11:03:39.813Z,1016.38
2018-11-21T11:04:39.783Z,1016.39
2018-11-21T11:05:39.991Z,1016.43
2018-11-21T11:06:40.190Z,1016.39
2018-11-21T11:07:39.947Z,1016.37
2018-11-21T11:08:39.944Z,1016.42
2018-11-21T11:09:39.785Z,1016.42
2018-11-21T11:10:39.793Z,1016.44
2018-11-21T11:11:39.793Z,1016.41
2018-11-21T11:12:40.090Z,1016.41
2018-11-21T11:13:39.804Z,1016.39
2018-11-21T11:14:39.803Z,1016.42
2018-11-21T11:15:39.755Z,1016.41
2018-11-21T11:16:39.788Z,1016.39
2018-11-21T11:17:39.993Z,1016.38
2018-11-21T11:18:39.774Z,1016.34
2018-11-21T11:19:39.852Z,1016.3
2018-11-21T11:20:39.790Z,1016.35
2018-11-21T11:21:39.796Z,1016.42
2018-11-21T11:22:39.812Z,1016.37
2018-11-21T11:23:39.812Z,1016.36
2018-11-21T11:24:39.815Z,1016.38
2018-11-21T11:25:39.762Z,1016.4
2018-11-21T11:26:39.959Z,1016.36
2018-11-21T11:27:39.949Z,1016.4
2018-11-21T11:28:39.947Z,1016.36
2018-11-21T11:29:39.773Z,1016.45
2018-11-21T11:30:39.860Z,1016.42
2018-11-21T11:31:39.819Z,1016.45
2018-11-21T11:32:40.035Z,1016.46
2018-11-21T11:33:40.036Z,1016.47
2018-11-21T11:34:40.248Z,1016.48
2018-11-21T11:35:40.069Z,1016.43
2018-11-21T11:36:39.982Z,1016.53
2018-11-21T11:37:39.979Z,1016.56
2018-11-21T11:38:39.805Z,1016.48
2018-11-21T11:39:39.892Z,1016.54
2018-11-21T11:40:39.929Z,1016.49
2018-11-21T11:41:39.962Z,1016.53
2018-11-21T11:42:39.947Z,1016.52
2018-11-21T11:43:40.032Z,1016.5
2018-11-21T11:44:39.950Z,1016.5
2018-11-21T11:45:39.800Z,1016.45
2018-11-21T11:46:39.793Z,1016.42
2018-11-21T11:47:39.745Z,1016.47
2018-11-21T11:48:40.042Z,1016.42
2018-11-21T11:49:39.692Z,1016.44
2018-11-21T11:50:39.989Z,1016.43
2018-11-21T11:51:39.775Z,1016.45
2018-11-21T11:52:39.797Z,1016.42
2018-11-21T11:53:40.028Z,1016.42
2018-11-21T11:54:39.794Z,1016.5
2018-11-21T11:55:39.905Z,1016.46
2018-11-21T11:56:40.559Z,1016.47
2018-11-21T11:57:39.984Z,1016.44
2018-11-21T11:58:40.027Z,1016.43
2018-11-21T11:59:39.812Z,1016.45
2018-11-21T12:00:39.918Z,1016.4
2018-11-21T12:01:39.812Z,1016.43
2018-11-21T12:02:39.748Z,1016.45
2018-11-21T12:03:39.705Z,1016.42
2018-11-21T12:04:39.718Z,1016.52
2018-11-21T12:05:39.759Z,1016.51
2018-11-21T12:06:39.899Z,1016.53
2018-11-21T12:07:39.681Z,1016.5
2018-11-21T12:08:39.721Z,1016.47
2018-11-21T12:09:39.729Z,1016.46